Guinda, California
Current Conditions -  °F | °C
As of 3:55 AM on Sunday 21 Dec 2014 (Local Time) from KEDU Reporting Station
Overcast Overcast  
Wind Chill: 55°   Ceiling: 400
Heat Index: 55°   Visibility: 5mi
Dew Point: 54°   Wind: 5mph
Humidity: 94%   Direction: 170°S
Pressure: 30.24"   Gusts: NA
Location:  38.83°N, 122.2°W
Report Text: KEDU 211155Z AUTO 17004KT 5SM OVC004 13/12 A3024 RMK AO1
Loading
Personal Weather Stations






























Interactive Weather Map New forecast layout! Learn more

10-Day Weather Forecast

Advertisements
Track Severe Weather on mobile